sensor_id;sensor_type;location;lat;lon;timestamp;temperature;humidity
802;DHT22;383;48.766;9.270;2023-03-01T00:02:19;-0.20;86.40
802;DHT22;383;48.766;9.270;2023-03-01T00:04:46;-0.20;86.80
802;DHT22;383;48.766;9.270;2023-03-01T00:07:13;-0.20;86.40
802;DHT22;383;48.766;9.270;2023-03-01T00:09:41;-0.20;86.50
802;DHT22;383;48.766;9.270;2023-03-01T00:12:07;-0.20;86.30
802;DHT22;383;48.766;9.270;2023-03-01T00:14:35;-0.20;86.40
802;DHT22;383;48.766;9.270;2023-03-01T00:17:02;-0.20;86.80
802;DHT22;383;48.766;9.270;2023-03-01T00:19:29;-0.20;86.50
802;DHT22;383;48.766;9.270;2023-03-01T00:21:55;-0.20;87.20
802;DHT22;383;48.766;9.270;2023-03-01T00:24:22;-0.20;86.80
802;DHT22;383;48.766;9.270;2023-03-01T00:26:52;-0.30;87.10
802;DHT22;383;48.766;9.270;2023-03-01T00:29:20;-0.30;87.20
802;DHT22;383;48.766;9.270;2023-03-01T00:31:47;-0.30;87.30
802;DHT22;383;48.766;9.270;2023-03-01T00:34:14;-0.30;87.60
802;DHT22;383;48.766;9.270;2023-03-01T00:36:40;-0.30;87.30
802;DHT22;383;48.766;9.270;2023-03-01T00:39:10;-0.30;87.20
802;DHT22;383;48.766;9.270;2023-03-01T00:41:37;-0.30;86.90
802;DHT22;383;48.766;9.270;2023-03-01T00:44:06;-0.30;87.30
802;DHT22;383;48.766;9.270;2023-03-01T00:46:33;-0.30;87.10
802;DHT22;383;48.766;9.270;2023-03-01T00:49:00;-0.30;87.10
802;DHT22;383;48.766;9.270;2023-03-01T00:51:28;-0.30;87.20
802;DHT22;383;48.766;9.270;2023-03-01T00:53:58;-0.30;87.10
802;DHT22;383;48.766;9.270;2023-03-01T00:56:25;-0.40;87.40
802;DHT22;383;48.766;9.270;2023-03-01T00:58:52;-0.40;87.40
802;DHT22;383;48.766;9.270;2023-03-01T01:01:22;-0.50;87.70
802;DHT22;383;48.766;9.270;2023-03-01T01:03:51;-0.50;87.80
802;DHT22;383;48.766;9.270;2023-03-01T01:06:20;-0.50;87.80
802;DHT22;383;48.766;9.270;2023-03-01T01:08:49;-0.40;87.40
802;DHT22;383;48.766;9.270;2023-03-01T01:11:16;-0.40;87.30
802;DHT22;383;48.766;9.270;2023-03-01T01:13:44;-0.40;87.30
802;DHT22;383;48.766;9.270;2023-03-01T01:16:11;-0.50;87.20
802;DHT22;383;48.766;9.270;2023-03-01T01:18:39;-0.50;87.70
802;DHT22;383;48.766;9.270;2023-03-01T01:21:08;-0.60;88.10
802;DHT22;383;48.766;9.270;2023-03-01T01:23:36;-0.60;88.20
802;DHT22;383;48.766;9.270;2023-03-01T01:26:04;-0.60;88.20
802;DHT22;383;48.766;9.270;2023-03-01T01:28:31;-0.60;88.20
802;DHT22;383;48.766;9.270;2023-03-01T01:30:58;-0.70;88.20
802;DHT22;383;48.766;9.270;2023-03-01T01:33:25;-0.70;88.20
802;DHT22;383;48.766;9.270;2023-03-01T01:35:53;-0.70;88.20
802;DHT22;383;48.766;9.270;2023-03-01T01:38:20;-0.70;88.10
802;DHT22;383;48.766;9.270;2023-03-01T01:40:49;-0.70;88.10
802;DHT22;383;48.766;9.270;2023-03-01T01:43:22;-0.70;88.20
802;DHT22;383;48.766;9.270;2023-03-01T01:45:50;-0.70;88.40
802;DHT22;383;48.766;9.270;2023-03-01T01:48:19;-0.70;88.40
802;DHT22;383;48.766;9.270;2023-03-01T01:50:50;-0.60;88.50
802;DHT22;383;48.766;9.270;2023-03-01T01:53:19;-0.60;88.80
802;DHT22;383;48.766;9.270;2023-03-01T01:55:50;-0.60;88.90
802;DHT22;383;48.766;9.270;2023-03-01T01:58:19;-0.50;89.20
802;DHT22;383;48.766;9.270;2023-03-01T02:00:47;-0.50;89.20
802;DHT22;383;48.766;9.270;2023-03-01T02:03:18;-0.40;89.40
802;DHT22;383;48.766;9.270;2023-03-01T02:05:49;-0.30;89.40
802;DHT22;383;48.766;9.270;2023-03-01T02:08:20;-0.20;89.00
802;DHT22;383;48.766;9.270;2023-03-01T02:10:48;-0.10;89.00
802;DHT22;383;48.766;9.270;2023-03-01T02:13:15;0.00;89.20
802;DHT22;383;48.766;9.270;2023-03-01T02:15:42;0.00;89.00
802;DHT22;383;48.766;9.270;2023-03-01T02:18:12;0.10;88.90
802;DHT22;383;48.766;9.270;2023-03-01T02:20:46;0.30;87.70
802;DHT22;383;48.766;9.270;2023-03-01T02:23:14;0.40;87.40
802;DHT22;383;48.766;9.270;2023-03-01T02:25:48;0.50;87.30
802;DHT22;383;48.766;9.270;2023-03-01T02:28:41;0.60;86.40
802;DHT22;383;48.766;9.270;2023-03-01T02:31:09;0.70;86.50
802;DHT22;383;48.766;9.270;2023-03-01T02:33:56;0.70;86.10
802;DHT22;383;48.766;9.270;2023-03-01T02:36:25;0.80;85.50
802;DHT22;383;48.766;9.270;2023-03-01T02:38:56;0.80;84.70
802;DHT22;383;48.766;9.270;2023-03-01T02:41:24;0.90;84.00
802;DHT22;383;48.766;9.270;2023-03-01T02:43:53;1.00;83.00
802;DHT22;383;48.766;9.270;2023-03-01T02:46:22;1.00;82.30
802;DHT22;383;48.766;9.270;2023-03-01T02:48:51;1.00;83.20
802;DHT22;383;48.766;9.270;2023-03-01T02:54:10;1.10;81.90
802;DHT22;383;48.766;9.270;2023-03-01T02:56:38;1.10;81.90
802;DHT22;383;48.766;9.270;2023-03-01T02:59:07;1.20;81.50
802;DHT22;383;48.766;9.270;2023-03-01T03:01:35;1.20;81.50
802;DHT22;383;48.766;9.270;2023-03-01T03:04:04;1.30;81.50
802;DHT22;383;48.766;9.270;2023-03-01T03:06:31;1.20;82.30
802;DHT22;383;48.766;9.270;2023-03-01T03:08:58;1.20;82.80
802;DHT22;383;48.766;9.270;2023-03-01T03:11:25;1.20;83.00
802;DHT22;383;48.766;9.270;2023-03-01T03:13:52;1.30;82.00
802;DHT22;383;48.766;9.270;2023-03-01T03:16:20;1.40;82.30
802;DHT22;383;48.766;9.270;2023-03-01T03:18:48;1.40;81.50
802;DHT22;383;48.766;9.270;2023-03-01T03:21:15;1.40;81.20
802;DHT22;383;48.766;9.270;2023-03-01T03:23:42;1.50;81.50
802;DHT22;383;48.766;9.270;2023-03-01T03:26:09;1.50;80.80
802;DHT22;383;48.766;9.270;2023-03-01T03:28:40;1.60;80.20
802;DHT22;383;48.766;9.270;2023-03-01T03:31:07;1.50;80.80
802;DHT22;383;48.766;9.270;2023-03-01T03:33:35;1.60;79.80
802;DHT22;383;48.766;9.270;2023-03-01T03:36:03;1.60;80.20
802;DHT22;383;48.766;9.270;2023-03-01T03:38:30;1.70;79.90
802;DHT22;383;48.766;9.270;2023-03-01T03:41:00;1.70;79.40
802;DHT22;383;48.766;9.270;2023-03-01T03:43:29;1.70;79.30
802;DHT22;383;48.766;9.270;2023-03-01T03:45:57;1.70;79.10
802;DHT22;383;48.766;9.270;2023-03-01T03:48:24;1.70;79.70
802;DHT22;383;48.766;9.270;2023-03-01T03:50:54;1.70;79.50
802;DHT22;383;48.766;9.270;2023-03-01T03:53:22;1.70;79.70
802;DHT22;383;48.766;9.270;2023-03-01T03:55:49;1.70;79.50
802;DHT22;383;48.766;9.270;2023-03-01T03:58:18;1.70;79.40
802;DHT22;383;48.766;9.270;2023-03-01T04:00:47;1.70;79.70
802;DHT22;383;48.766;9.270;2023-03-01T04:03:15;1.70;79.40
802;DHT22;383;48.766;9.270;2023-03-01T04:05:44;1.70;79.50
802;DHT22;383;48.766;9.270;2023-03-01T04:08:12;1.80;79.40
802;DHT22;383;48.766;9.270;2023-03-01T04:10:43;1.70;79.30
802;DHT22;383;48.766;9.270;2023-03-01T04:13:12;1.70;80.00
802;DHT22;383;48.766;9.270;2023-03-01T04:15:39;1.70;80.70
802;DHT22;383;48.766;9.270;2023-03-01T04:18:06;1.80;80.70
802;DHT22;383;48.766;9.270;2023-03-01T04:20:34;1.80;80.60
802;DHT22;383;48.766;9.270;2023-03-01T04:23:03;1.80;80.70
802;DHT22;383;48.766;9.270;2023-03-01T04:25:38;1.90;81.00
802;DHT22;383;48.766;9.270;2023-03-01T04:28:05;2.00;80.80
802;DHT22;383;48.766;9.270;2023-03-01T04:30:32;2.00;81.00
802;DHT22;383;48.766;9.270;2023-03-01T04:33:01;2.10;80.60
802;DHT22;383;48.766;9.270;2023-03-01T04:35:28;2.10;79.90
802;DHT22;383;48.766;9.270;2023-03-01T04:37:55;2.10;80.20
802;DHT22;383;48.766;9.270;2023-03-01T04:40:22;2.20;80.00
802;DHT22;383;48.766;9.270;2023-03-01T04:42:50;2.20;79.80
802;DHT22;383;48.766;9.270;2023-03-01T04:45:17;2.20;79.70
802;DHT22;383;48.766;9.270;2023-03-01T04:47:45;2.20;79.70
802;DHT22;383;48.766;9.270;2023-03-01T04:50:13;2.20;79.90
802;DHT22;383;48.766;9.270;2023-03-01T04:52:41;2.30;79.10
802;DHT22;383;48.766;9.270;2023-03-01T04:55:08;2.30;79.30
802;DHT22;383;48.766;9.270;2023-03-01T04:57:35;2.40;77.90
802;DHT22;383;48.766;9.270;2023-03-01T05:00:05;2.40;77.50
802;DHT22;383;48.766;9.270;2023-03-01T05:02:46;2.50;76.10
802;DHT22;383;48.766;9.270;2023-03-01T05:05:13;2.40;75.70
802;DHT22;383;48.766;9.270;2023-03-01T05:07:40;2.30;76.50
802;DHT22;383;48.766;9.270;2023-03-01T05:10:07;2.20;76.50
802;DHT22;383;48.766;9.270;2023-03-01T05:12:34;2.20;76.70
802;DHT22;383;48.766;9.270;2023-03-01T05:15:05;2.20;77.00
802;DHT22;383;48.766;9.270;2023-03-01T05:17:32;2.20;76.50
802;DHT22;383;48.766;9.270;2023-03-01T05:19:59;2.20;76.30
802;DHT22;383;48.766;9.270;2023-03-01T05:22:26;2.10;76.70
802;DHT22;383;48.766;9.270;2023-03-01T05:24:53;2.10;76.90
802;DHT22;383;48.766;9.270;2023-03-01T05:27:20;2.10;76.60
802;DHT22;383;48.766;9.270;2023-03-01T05:29:48;2.20;76.90
802;DHT22;383;48.766;9.270;2023-03-01T05:32:16;2.10;76.70
802;DHT22;383;48.766;9.270;2023-03-01T05:34:42;2.10;76.90
802;DHT22;383;48.766;9.270;2023-03-01T05:37:11;2.20;76.90
802;DHT22;383;48.766;9.270;2023-03-01T05:39:38;2.20;76.90
802;DHT22;383;48.766;9.270;2023-03-01T05:42:10;2.20;76.70
802;DHT22;383;48.766;9.270;2023-03-01T05:44:38;2.20;76.90
802;DHT22;383;48.766;9.270;2023-03-01T05:47:06;2.30;76.90
802;DHT22;383;48.766;9.270;2023-03-01T05:49:34;2.30;76.30
802;DHT22;383;48.766;9.270;2023-03-01T05:52:00;2.30;76.30
802;DHT22;383;48.766;9.270;2023-03-01T05:54:27;2.30;76.50
802;DHT22;383;48.766;9.270;2023-03-01T05:56:54;2.40;76.60
802;DHT22;383;48.766;9.270;2023-03-01T05:59:21;2.40;76.30
802;DHT22;383;48.766;9.270;2023-03-01T06:01:48;2.40;76.50
802;DHT22;383;48.766;9.270;2023-03-01T06:04:16;2.30;76.60
802;DHT22;383;48.766;9.270;2023-03-01T06:06:44;2.40;76.60
802;DHT22;383;48.766;9.270;2023-03-01T06:09:11;2.30;76.70
802;DHT22;383;48.766;9.270;2023-03-01T06:11:37;2.30;76.90
802;DHT22;383;48.766;9.270;2023-03-01T06:14:06;2.30;76.70
802;DHT22;383;48.766;9.270;2023-03-01T06:16:35;2.30;77.00
802;DHT22;383;48.766;9.270;2023-03-01T06:19:02;2.30;77.00
802;DHT22;383;48.766;9.270;2023-03-01T06:21:29;2.30;77.00
802;DHT22;383;48.766;9.270;2023-03-01T06:23:57;2.20;77.30
802;DHT22;383;48.766;9.270;2023-03-01T06:26:23;2.30;77.10
802;DHT22;383;48.766;9.270;2023-03-01T06:28:50;2.30;77.40
802;DHT22;383;48.766;9.270;2023-03-01T06:31:17;2.40;77.10
802;DHT22;383;48.766;9.270;2023-03-01T06:33:43;2.40;76.70
802;DHT22;383;48.766;9.270;2023-03-01T06:36:11;2.50;76.60
802;DHT22;383;48.766;9.270;2023-03-01T06:38:37;2.50;76.10
802;DHT22;383;48.766;9.270;2023-03-01T06:41:07;2.40;76.50
802;DHT22;383;48.766;9.270;2023-03-01T06:43:34;2.20;76.90
802;DHT22;383;48.766;9.270;2023-03-01T06:46:03;2.20;77.80
802;DHT22;383;48.766;9.270;2023-03-01T06:48:30;2.20;78.30
802;DHT22;383;48.766;9.270;2023-03-01T06:50:58;2.10;78.10
802;DHT22;383;48.766;9.270;2023-03-01T06:53:24;2.10;78.30
802;DHT22;383;48.766;9.270;2023-03-01T06:55:54;2.00;78.30
802;DHT22;383;48.766;9.270;2023-03-01T06:58:22;1.80;79.10
802;DHT22;383;48.766;9.270;2023-03-01T07:00:49;1.80;79.40
802;DHT22;383;48.766;9.270;2023-03-01T07:03:16;1.80;79.70
802;DHT22;383;48.766;9.270;2023-03-01T07:05:42;1.80;79.70
802;DHT22;383;48.766;9.270;2023-03-01T07:08:09;1.80;79.90
802;DHT22;383;48.766;9.270;2023-03-01T07:10:36;1.80;79.80
802;DHT22;383;48.766;9.270;2023-03-01T07:13:03;1.70;79.80
802;DHT22;383;48.766;9.270;2023-03-01T07:15:33;1.60;80.20
802;DHT22;383;48.766;9.270;2023-03-01T07:18:00;1.60;80.80
802;DHT22;383;48.766;9.270;2023-03-01T07:20:26;1.60;80.80
802;DHT22;383;48.766;9.270;2023-03-01T07:22:54;1.60;80.60
802;DHT22;383;48.766;9.270;2023-03-01T07:25:22;1.60;81.10
802;DHT22;383;48.766;9.270;2023-03-01T07:27:50;1.60;81.20
802;DHT22;383;48.766;9.270;2023-03-01T07:30:17;1.60;81.20
802;DHT22;383;48.766;9.270;2023-03-01T07:32:46;1.60;81.10
802;DHT22;383;48.766;9.270;2023-03-01T07:35:13;1.70;81.00
802;DHT22;383;48.766;9.270;2023-03-01T07:37:40;1.70;80.40
802;DHT22;383;48.766;9.270;2023-03-01T07:40:08;1.70;80.30
802;DHT22;383;48.766;9.270;2023-03-01T07:42:35;1.80;80.00
802;DHT22;383;48.766;9.270;2023-03-01T07:45:02;1.90;79.40
802;DHT22;383;48.766;9.270;2023-03-01T07:47:28;1.90;79.50
802;DHT22;383;48.766;9.270;2023-03-01T07:49:56;2.00;79.00
802;DHT22;383;48.766;9.270;2023-03-01T07:52:23;2.00;78.70
802;DHT22;383;48.766;9.270;2023-03-01T07:54:50;2.10;78.30
802;DHT22;383;48.766;9.270;2023-03-01T07:57:17;2.10;78.10
802;DHT22;383;48.766;9.270;2023-03-01T07:59:43;2.20;77.90
802;DHT22;383;48.766;9.270;2023-03-01T08:02:11;2.20;77.30
802;DHT22;383;48.766;9.270;2023-03-01T08:04:37;2.10;77.90
802;DHT22;383;48.766;9.270;2023-03-01T08:07:06;2.20;78.30
802;DHT22;383;48.766;9.270;2023-03-01T08:09:34;2.30;77.30
802;DHT22;383;48.766;9.270;2023-03-01T08:12:01;2.30;76.90
802;DHT22;383;48.766;9.270;2023-03-01T08:14:29;2.30;77.00
802;DHT22;383;48.766;9.270;2023-03-01T08:16:56;2.40;76.60
802;DHT22;383;48.766;9.270;2023-03-01T08:19:23;2.40;76.70
802;DHT22;383;48.766;9.270;2023-03-01T08:21:49;2.50;76.10
802;DHT22;383;48.766;9.270;2023-03-01T08:24:17;2.60;76.00
802;DHT22;383;48.766;9.270;2023-03-01T08:26:44;2.70;75.80
802;DHT22;383;48.766;9.270;2023-03-01T08:29:11;2.70;75.70
802;DHT22;383;48.766;9.270;2023-03-01T08:31:39;2.80;75.20
802;DHT22;383;48.766;9.270;2023-03-01T08:34:08;2.90;74.60
802;DHT22;383;48.766;9.270;2023-03-01T08:36:37;3.00;74.20
802;DHT22;383;48.766;9.270;2023-03-01T08:39:06;3.10;74.10
802;DHT22;383;48.766;9.270;2023-03-01T08:41:34;3.20;73.70
802;DHT22;383;48.766;9.270;2023-03-01T08:44:01;3.30;73.00
802;DHT22;383;48.766;9.270;2023-03-01T08:46:28;3.40;73.00
802;DHT22;383;48.766;9.270;2023-03-01T08:48:55;3.40;72.50
802;DHT22;383;48.766;9.270;2023-03-01T08:51:23;3.50;72.10
802;DHT22;383;48.766;9.270;2023-03-01T08:53:50;3.60;72.00
802;DHT22;383;48.766;9.270;2023-03-01T08:56:17;3.70;71.50
802;DHT22;383;48.766;9.270;2023-03-01T08:58:47;3.80;71.30
802;DHT22;383;48.766;9.270;2023-03-01T09:01:15;3.90;71.20
802;DHT22;383;48.766;9.270;2023-03-01T09:03:43;4.10;69.90
802;DHT22;383;48.766;9.270;2023-03-01T09:06:10;4.20;69.50
802;DHT22;383;48.766;9.270;2023-03-01T09:08:39;4.20;68.90
802;DHT22;383;48.766;9.270;2023-03-01T09:11:08;4.30;67.80
802;DHT22;383;48.766;9.270;2023-03-01T09:13:36;4.30;68.30
802;DHT22;383;48.766;9.270;2023-03-01T09:16:07;4.30;67.90
802;DHT22;383;48.766;9.270;2023-03-01T09:18:34;4.30;67.50
802;DHT22;383;48.766;9.270;2023-03-01T09:21:03;4.30;68.40
802;DHT22;383;48.766;9.270;2023-03-01T09:23:33;4.40;67.10
802;DHT22;383;48.766;9.270;2023-03-01T09:26:00;4.40;67.00
802;DHT22;383;48.766;9.270;2023-03-01T09:28:26;4.40;67.10
802;DHT22;383;48.766;9.270;2023-03-01T09:30:53;4.40;67.50
802;DHT22;383;48.766;9.270;2023-03-01T09:33:21;4.50;67.10
802;DHT22;383;48.766;9.270;2023-03-01T10:16:16;4.60;67.20
802;DHT22;383;48.766;9.270;2023-03-01T10:18:51;5.80;62.50
802;DHT22;383;48.766;9.270;2023-03-01T10:21:20;5.80;61.70
802;DHT22;383;48.766;9.270;2023-03-01T10:23:50;5.80;62.50
802;DHT22;383;48.766;9.270;2023-03-01T10:26:30;6.00;61.70
802;DHT22;383;48.766;9.270;2023-03-01T10:29:03;6.00;61.90
802;DHT22;383;48.766;9.270;2023-03-01T10:34:07;6.10;61.40
802;DHT22;383;48.766;9.270;2023-03-01T10:36:36;6.30;60.40
802;DHT22;383;48.766;9.270;2023-03-01T10:39:12;6.30;60.20
802;DHT22;383;48.766;9.270;2023-03-01T10:41:57;6.10;60.20
802;DHT22;383;48.766;9.270;2023-03-01T10:44:42;6.10;61.00
802;DHT22;383;48.766;9.270;2023-03-01T10:47:15;6.30;61.00
802;DHT22;383;48.766;9.270;2023-03-01T10:49:57;6.30;60.50
802;DHT22;383;48.766;9.270;2023-03-01T10:52:29;6.30;60.10
802;DHT22;383;48.766;9.270;2023-03-01T10:54:57;6.40;60.60
802;DHT22;383;48.766;9.270;2023-03-01T10:57:29;6.50;60.10
802;DHT22;383;48.766;9.270;2023-03-01T11:00:25;6.60;59.80
802;DHT22;383;48.766;9.270;2023-03-01T11:05:29;6.70;59.30
802;DHT22;383;48.766;9.270;2023-03-01T11:08:01;6.70;59.10
802;DHT22;383;48.766;9.270;2023-03-01T11:10:30;6.70;58.70
802;DHT22;383;48.766;9.270;2023-03-01T11:13:07;6.60;59.10
802;DHT22;383;48.766;9.270;2023-03-01T11:15:34;6.60;60.00
802;DHT22;383;48.766;9.270;2023-03-01T11:18:01;6.80;59.30
802;DHT22;383;48.766;9.270;2023-03-01T11:20:31;6.90;59.10
802;DHT22;383;48.766;9.270;2023-03-01T11:23:02;6.90;59.20
802;DHT22;383;48.766;9.270;2023-03-01T11:25:32;7.10;58.70
802;DHT22;383;48.766;9.270;2023-03-01T11:28:03;7.10;59.00
802;DHT22;383;48.766;9.270;2023-03-01T11:30:34;7.30;58.10
802;DHT22;383;48.766;9.270;2023-03-01T11:33:11;7.30;58.00
802;DHT22;383;48.766;9.270;2023-03-01T11:35:44;7.40;58.30
802;DHT22;383;48.766;9.270;2023-03-01T11:38:20;7.50;57.00
802;DHT22;383;48.766;9.270;2023-03-01T11:40:52;7.50;57.10
802;DHT22;383;48.766;9.270;2023-03-01T11:43:41;7.50;58.10
802;DHT22;383;48.766;9.270;2023-03-01T11:46:35;7.60;57.60
802;DHT22;383;48.766;9.270;2023-03-01T11:49:34;7.60;57.60
802;DHT22;383;48.766;9.270;2023-03-01T11:52:11;7.70;57.40
802;DHT22;383;48.766;9.270;2023-03-01T11:54:50;7.70;57.10
802;DHT22;383;48.766;9.270;2023-03-01T11:57:27;7.70;56.90
802;DHT22;383;48.766;9.270;2023-03-01T12:00:06;7.80;57.00
802;DHT22;383;48.766;9.270;2023-03-01T12:08:46;7.90;57.60
802;DHT22;383;48.766;9.270;2023-03-01T12:11:23;8.00;57.40
802;DHT22;383;48.766;9.270;2023-03-01T12:14:21;8.20;56.60
802;DHT22;383;48.766;9.270;2023-03-01T12:17:04;8.30;55.70
802;DHT22;383;48.766;9.270;2023-03-01T12:19:56;8.30;55.90
802;DHT22;383;48.766;9.270;2023-03-01T12:22:32;8.30;55.50
802;DHT22;383;48.766;9.270;2023-03-01T12:25:16;8.30;56.00
802;DHT22;383;48.766;9.270;2023-03-01T12:28:08;8.30;55.90
802;DHT22;383;48.766;9.270;2023-03-01T12:30:46;8.30;55.60
802;DHT22;383;48.766;9.270;2023-03-01T12:33:26;8.30;55.40
802;DHT22;383;48.766;9.270;2023-03-01T12:36:11;8.20;55.60
802;DHT22;383;48.766;9.270;2023-03-01T12:38:41;8.30;55.60
802;DHT22;383;48.766;9.270;2023-03-01T12:41:31;8.30;56.00
802;DHT22;383;48.766;9.270;2023-03-01T12:44:23;8.40;55.60
802;DHT22;383;48.766;9.270;2023-03-01T12:47:03;8.30;55.60
802;DHT22;383;48.766;9.270;2023-03-01T12:49:36;8.40;55.90
802;DHT22;383;48.766;9.270;2023-03-01T12:52:11;8.40;56.50
802;DHT22;383;48.766;9.270;2023-03-01T12:54:41;8.60;55.70
802;DHT22;383;48.766;9.270;2023-03-01T12:57:14;8.60;55.40
802;DHT22;383;48.766;9.270;2023-03-01T12:59:51;8.70;55.70
802;DHT22;383;48.766;9.270;2023-03-01T13:02:30;8.80;55.40
802;DHT22;383;48.766;9.270;2023-03-01T13:05:10;8.90;54.70
802;DHT22;383;48.766;9.270;2023-03-01T13:07:52;8.90;54.90
802;DHT22;383;48.766;9.270;2023-03-01T13:10:24;8.90;54.70
802;DHT22;383;48.766;9.270;2023-03-01T13:13:01;8.90;54.40
802;DHT22;383;48.766;9.270;2023-03-01T13:15:34;8.90;55.00
802;DHT22;383;48.766;9.270;2023-03-01T13:18:03;9.10;54.50
802;DHT22;383;48.766;9.270;2023-03-01T13:20:33;9.10;54.30
802;DHT22;383;48.766;9.270;2023-03-01T13:23:07;9.20;54.30
802;DHT22;383;48.766;9.270;2023-03-01T13:28:51;9.20;54.10
802;DHT22;383;48.766;9.270;2023-03-01T13:34:48;9.30;54.10
802;DHT22;383;48.766;9.270;2023-03-01T13:37:31;9.40;54.40
802;DHT22;383;48.766;9.270;2023-03-01T13:40:00;9.40;54.00
802;DHT22;383;48.766;9.270;2023-03-01T13:42:39;9.40;53.60
802;DHT22;383;48.766;9.270;2023-03-01T13:45:17;9.40;53.80
802;DHT22;383;48.766;9.270;2023-03-01T13:47:46;9.50;53.80
802;DHT22;383;48.766;9.270;2023-03-01T13:50:21;9.50;54.40
802;DHT22;383;48.766;9.270;2023-03-01T13:52:53;9.60;54.30
802;DHT22;383;48.766;9.270;2023-03-01T13:55:25;9.70;53.40
802;DHT22;383;48.766;9.270;2023-03-01T13:57:55;9.70;53.50
802;DHT22;383;48.766;9.270;2023-03-01T14:00:28;9.70;53.00
802;DHT22;383;48.766;9.270;2023-03-01T14:05:32;9.40;53.80
802;DHT22;383;48.766;9.270;2023-03-01T14:07:58;9.30;54.40
802;DHT22;383;48.766;9.270;2023-03-01T14:10:34;9.30;55.00
802;DHT22;383;48.766;9.270;2023-03-01T14:13:12;9.30;55.00
802;DHT22;383;48.766;9.270;2023-03-01T14:15:50;9.30;54.40
802;DHT22;383;48.766;9.270;2023-03-01T14:18:26;9.30;54.30
802;DHT22;383;48.766;9.270;2023-03-01T14:20:55;9.30;54.50
802;DHT22;383;48.766;9.270;2023-03-01T14:23:23;9.30;53.80
802;DHT22;383;48.766;9.270;2023-03-01T14:25:53;9.20;54.10
802;DHT22;383;48.766;9.270;2023-03-01T14:28:21;9.30;54.10
802;DHT22;383;48.766;9.270;2023-03-01T14:30:54;9.30;54.00
802;DHT22;383;48.766;9.270;2023-03-01T14:33:23;9.40;54.00
802;DHT22;383;48.766;9.270;2023-03-01T14:35:56;9.30;54.40
802;DHT22;383;48.766;9.270;2023-03-01T14:40:58;9.40;54.10
802;DHT22;383;48.766;9.270;2023-03-01T14:43:25;9.30;54.40
802;DHT22;383;48.766;9.270;2023-03-01T14:45:52;9.30;54.50
802;DHT22;383;48.766;9.270;2023-03-01T14:48:19;9.30;54.40
802;DHT22;383;48.766;9.270;2023-03-01T14:50:47;9.30;54.60
802;DHT22;383;48.766;9.270;2023-03-01T14:53:23;9.40;54.70
802;DHT22;383;48.766;9.270;2023-03-01T14:55:52;9.40;54.40
802;DHT22;383;48.766;9.270;2023-03-01T14:58:22;9.40;54.50
802;DHT22;383;48.766;9.270;2023-03-01T15:00:51;9.50;54.60
802;DHT22;383;48.766;9.270;2023-03-01T15:03:24;9.50;54.70
802;DHT22;383;48.766;9.270;2023-03-01T15:05:52;9.50;54.50
802;DHT22;383;48.766;9.270;2023-03-01T15:08:23;9.50;54.10
802;DHT22;383;48.766;9.270;2023-03-01T15:10:59;9.50;54.40
802;DHT22;383;48.766;9.270;2023-03-01T15:13:30;9.40;54.70
802;DHT22;383;48.766;9.270;2023-03-01T15:16:08;9.30;54.70
802;DHT22;383;48.766;9.270;2023-03-01T15:18:36;9.30;55.00
802;DHT22;383;48.766;9.270;2023-03-01T15:21:09;9.40;54.70
802;DHT22;383;48.766;9.270;2023-03-01T15:23:49;9.40;54.60
802;DHT22;383;48.766;9.270;2023-03-01T15:26:25;9.30;54.50
802;DHT22;383;48.766;9.270;2023-03-01T15:28:54;9.30;54.70
802;DHT22;383;48.766;9.270;2023-03-01T15:31:25;9.30;54.90
802;DHT22;383;48.766;9.270;2023-03-01T15:33:53;9.30;55.40
802;DHT22;383;48.766;9.270;2023-03-01T15:36:40;9.30;54.90
802;DHT22;383;48.766;9.270;2023-03-01T15:39:27;9.20;55.20
802;DHT22;383;48.766;9.270;2023-03-01T15:41:56;9.20;55.60
802;DHT22;383;48.766;9.270;2023-03-01T15:44:26;9.30;55.20
802;DHT22;383;48.766;9.270;2023-03-01T15:46:53;9.30;54.90
802;DHT22;383;48.766;9.270;2023-03-01T15:49:29;9.30;54.60
802;DHT22;383;48.766;9.270;2023-03-01T15:51:58;9.20;55.10
802;DHT22;383;48.766;9.270;2023-03-01T15:54:27;9.20;55.40
802;DHT22;383;48.766;9.270;2023-03-01T15:56:55;9.30;54.90
802;DHT22;383;48.766;9.270;2023-03-01T15:59:21;9.20;55.10
802;DHT22;383;48.766;9.270;2023-03-01T16:01:49;9.10;55.10
802;DHT22;383;48.766;9.270;2023-03-01T16:04:18;9.00;55.50
802;DHT22;383;48.766;9.270;2023-03-01T16:06:48;9.00;55.40
802;DHT22;383;48.766;9.270;2023-03-01T16:09:20;8.90;56.00
802;DHT22;383;48.766;9.270;2023-03-01T16:11:48;8.90;55.20
802;DHT22;383;48.766;9.270;2023-03-01T16:14:15;8.80;55.50
802;DHT22;383;48.766;9.270;2023-03-01T16:16:41;8.60;55.40
802;DHT22;383;48.766;9.270;2023-03-01T16:19:08;8.50;56.10
802;DHT22;383;48.766;9.270;2023-03-01T16:21:35;8.50;56.40
802;DHT22;383;48.766;9.270;2023-03-01T16:24:03;8.40;56.00
802;DHT22;383;48.766;9.270;2023-03-01T16:26:29;8.40;56.40
802;DHT22;383;48.766;9.270;2023-03-01T16:28:58;8.30;56.50
802;DHT22;383;48.766;9.270;2023-03-01T16:31:25;8.30;56.50
802;DHT22;383;48.766;9.270;2023-03-01T16:33:53;8.30;56.50
802;DHT22;383;48.766;9.270;2023-03-01T16:36:21;8.30;56.70
802;DHT22;383;48.766;9.270;2023-03-01T16:38:49;8.20;56.40
802;DHT22;383;48.766;9.270;2023-03-01T16:41:17;8.10;56.70
802;DHT22;383;48.766;9.270;2023-03-01T16:43:44;8.10;56.90
802;DHT22;383;48.766;9.270;2023-03-01T16:46:15;8.00;57.00
802;DHT22;383;48.766;9.270;2023-03-01T16:48:43;8.00;57.00
802;DHT22;383;48.766;9.270;2023-03-01T16:51:11;7.90;57.40
802;DHT22;383;48.766;9.270;2023-03-01T16:53:38;7.90;57.10
802;DHT22;383;48.766;9.270;2023-03-01T16:56:08;7.90;57.60
802;DHT22;383;48.766;9.270;2023-03-01T17:06:43;7.70;58.30
802;DHT22;383;48.766;9.270;2023-03-01T17:09:14;7.60;59.00
802;DHT22;383;48.766;9.270;2023-03-01T17:11:42;7.50;59.50
802;DHT22;383;48.766;9.270;2023-03-01T17:14:09;7.50;59.70
802;DHT22;383;48.766;9.270;2023-03-01T17:16:35;7.40;60.50
802;DHT22;383;48.766;9.270;2023-03-01T17:19:02;7.30;61.50
802;DHT22;383;48.766;9.270;2023-03-01T17:21:29;7.20;61.70
802;DHT22;383;48.766;9.270;2023-03-01T17:23:57;7.10;62.30
802;DHT22;383;48.766;9.270;2023-03-01T17:26:24;7.00;62.50
802;DHT22;383;48.766;9.270;2023-03-01T17:28:54;6.80;62.90
802;DHT22;383;48.766;9.270;2023-03-01T17:31:21;6.80;63.40
802;DHT22;383;48.766;9.270;2023-03-01T17:33:48;6.70;63.70
802;DHT22;383;48.766;9.270;2023-03-01T17:36:15;6.60;64.20
802;DHT22;383;48.766;9.270;2023-03-01T17:38:42;6.50;64.70
802;DHT22;383;48.766;9.270;2023-03-01T17:41:10;6.40;64.90
802;DHT22;383;48.766;9.270;2023-03-01T17:43:37;6.20;65.40
802;DHT22;383;48.766;9.270;2023-03-01T17:46:04;6.20;66.00
802;DHT22;383;48.766;9.270;2023-03-01T17:48:30;6.10;66.30
802;DHT22;383;48.766;9.270;2023-03-01T17:50:57;6.00;66.60
802;DHT22;383;48.766;9.270;2023-03-01T17:53:24;5.90;67.10
802;DHT22;383;48.766;9.270;2023-03-01T17:55:58;5.80;67.50
802;DHT22;383;48.766;9.270;2023-03-01T17:58:26;5.70;67.80
802;DHT22;383;48.766;9.270;2023-03-01T18:00:53;5.60;68.40
802;DHT22;383;48.766;9.270;2023-03-01T18:03:20;5.50;68.70
802;DHT22;383;48.766;9.270;2023-03-01T18:05:47;5.50;68.70
802;DHT22;383;48.766;9.270;2023-03-01T18:08:15;5.40;69.20
802;DHT22;383;48.766;9.270;2023-03-01T18:10:41;5.20;69.90
802;DHT22;383;48.766;9.270;2023-03-01T18:13:08;5.10;70.30
802;DHT22;383;48.766;9.270;2023-03-01T18:15:36;5.10;70.50
802;DHT22;383;48.766;9.270;2023-03-01T18:18:03;5.00;70.50
802;DHT22;383;48.766;9.270;2023-03-01T18:20:30;4.90;70.80
802;DHT22;383;48.766;9.270;2023-03-01T18:22:57;4.80;71.30